createdAt,value
2022-11-24T00:01:09.988Z,17.20
2022-11-24T00:03:37.247Z,21.17
2022-11-24T00:06:11.882Z,20.88
2022-11-24T00:08:40.080Z,17.65
2022-11-24T00:11:09.217Z,18.63
2022-11-24T00:13:36.210Z,19.90
2022-11-24T00:16:14.593Z,20.08
2022-11-24T00:18:42.912Z,20.45
2022-11-24T00:21:10.087Z,20.85
2022-11-24T00:23:37.420Z,21.83
2022-11-24T00:26:06.026Z,21.13
2022-11-24T00:28:34.196Z,22.23
2022-11-24T00:31:01.466Z,21.27
2022-11-24T00:33:27.880Z,21.70
2022-11-24T00:35:59.185Z,21.35
2022-11-24T00:38:25.918Z,20.10
2022-11-24T00:40:52.967Z,20.08
2022-11-24T00:43:19.739Z,19.48
2022-11-24T00:45:46.197Z,17.45
2022-11-24T00:48:12.697Z,17.33
2022-11-24T00:50:39.064Z,18.05
2022-11-24T00:53:05.453Z,16.10
2022-11-24T00:55:31.911Z,17.52
2022-11-24T00:57:58.379Z,17.88
2022-11-24T01:00:24.797Z,16.67
2022-11-24T01:02:52.776Z,16.50
2022-11-24T01:05:19.313Z,16.75
2022-11-24T01:07:45.730Z,15.93
2022-11-24T01:10:12.159Z,15.43
2022-11-24T01:12:38.510Z,15.93
2022-11-24T01:15:05.351Z,15.55
2022-11-24T01:17:31.776Z,16.08
2022-11-24T01:19:58.127Z,15.60
2022-11-24T01:22:26.387Z,15.55
2022-11-24T01:24:52.774Z,16.67
2022-11-24T01:27:19.134Z,15.27
2022-11-24T01:29:45.518Z,15.10
2022-11-24T01:32:11.898Z,15.65
2022-11-24T01:34:38.244Z,14.45
2022-11-24T01:37:04.757Z,14.85
2022-11-24T01:39:31.144Z,15.23
2022-11-24T01:42:01.471Z,14.65
2022-11-24T01:44:30.365Z,15.05
2022-11-24T01:47:21.140Z,14.88
2022-11-24T01:49:53.094Z,15.48
2022-11-24T01:52:24.729Z,14.95
2022-11-24T01:55:02.045Z,14.93
2022-11-24T01:57:34.529Z,15.77
2022-11-24T02:00:06.248Z,14.25
2022-11-24T02:02:32.709Z,13.75
2022-11-24T02:05:05.618Z,13.88
2022-11-24T02:07:33.067Z,15.10
2022-11-24T02:12:28.693Z,13.90
2022-11-24T02:14:55.926Z,14.93
2022-11-24T02:17:22.662Z,14.50
2022-11-24T02:20:00.659Z,15.40
2022-11-24T02:22:49.395Z,14.50
2022-11-24T02:25:32.264Z,14.23
2022-11-24T02:28:00.418Z,14.82
2022-11-24T02:30:26.798Z,14.68
2022-11-24T02:32:53.721Z,14.82
2022-11-24T02:35:20.669Z,15.18
2022-11-24T02:37:47.051Z,14.07
2022-11-24T02:40:20.579Z,15.13
2022-11-24T02:42:47.388Z,15.27
2022-11-24T02:45:16.504Z,13.63
2022-11-24T02:47:43.571Z,15.23
2022-11-24T02:50:10.108Z,15.90
2022-11-24T02:52:36.556Z,17.17
2022-11-24T02:55:03.206Z,15.50
2022-11-24T02:57:29.795Z,16.37
2022-11-24T02:59:56.485Z,15.38
2022-11-24T03:02:23.095Z,14.80
2022-11-24T03:04:49.528Z,15.20
2022-11-24T03:07:15.938Z,14.38
2022-11-24T03:09:42.400Z,14.35
2022-11-24T03:12:08.764Z,14.60
2022-11-24T03:14:35.278Z,14.38
2022-11-24T03:17:01.831Z,13.80
2022-11-24T03:19:28.178Z,14.10
2022-11-24T03:21:54.572Z,14.05
2022-11-24T03:24:21.034Z,13.85
2022-11-24T03:26:47.393Z,14.95
2022-11-24T03:29:13.731Z,14.02
2022-11-24T03:31:40.203Z,14.98
2022-11-24T03:34:06.636Z,14.95
2022-11-24T03:36:32.995Z,14.15
2022-11-24T03:38:59.351Z,14.18
2022-11-24T03:41:25.973Z,14.07
2022-11-24T03:43:52.349Z,13.88
2022-11-24T03:46:18.883Z,13.68
2022-11-24T03:48:45.297Z,13.57
2022-11-24T03:51:11.661Z,13.65
2022-11-24T03:53:38.356Z,14.10
2022-11-24T03:56:04.788Z,15.32
2022-11-24T03:58:31.194Z,15.27
2022-11-24T04:00:57.645Z,14.27
2022-11-24T04:03:24.812Z,16.38
2022-11-24T04:05:51.362Z,15.15
2022-11-24T04:08:17.851Z,16.00
2022-11-24T04:10:44.231Z,14.95
2022-11-24T04:13:14.012Z,14.95
2022-11-24T04:15:41.788Z,13.95
2022-11-24T04:18:09.801Z,14.48
2022-11-24T04:20:37.099Z,14.32
2022-11-24T04:23:03.768Z,15.35
2022-11-24T04:25:30.440Z,13.55
2022-11-24T04:27:56.918Z,15.55
2022-11-24T04:30:24.778Z,14.63
2022-11-24T04:32:51.312Z,14.02
2022-11-24T04:35:18.263Z,14.82
2022-11-24T04:37:44.879Z,15.15
2022-11-24T04:40:12.418Z,15.10
2022-11-24T04:42:38.961Z,14.68
2022-11-24T04:45:06.346Z,13.85
2022-11-24T04:47:33.087Z,14.02
2022-11-24T04:49:59.611Z,15.75
2022-11-24T04:52:26.494Z,15.25
2022-11-24T04:54:52.946Z,14.55
2022-11-24T04:57:25.079Z,14.75
2022-11-24T04:59:52.690Z,15.88
2022-11-24T05:04:46.175Z,14.45
2022-11-24T05:07:18.849Z,16.55
2022-11-24T05:10:24.991Z,14.77
2022-11-24T05:12:59.352Z,15.88
2022-11-24T05:15:26.205Z,15.20
2022-11-24T05:17:52.725Z,16.75
2022-11-24T05:20:19.581Z,15.80
2022-11-24T05:22:45.957Z,16.08
2022-11-24T05:25:14.169Z,17.08
2022-11-24T05:27:41.117Z,17.10
2022-11-24T05:30:08.201Z,16.13
2022-11-24T05:32:34.598Z,17.98
2022-11-24T05:35:02.222Z,16.70
2022-11-24T05:39:55.112Z,17.90
2022-11-24T05:42:43.528Z,19.15
2022-11-24T05:45:16.147Z,18.85
2022-11-24T05:47:43.003Z,18.25
2022-11-24T05:50:11.696Z,17.38
2022-11-24T05:52:38.615Z,17.65
2022-11-24T05:55:06.629Z,17.83
2022-11-24T05:57:33.573Z,17.83
2022-11-24T06:00:00.233Z,17.33
2022-11-24T06:02:26.969Z,17.60
2022-11-24T06:04:53.442Z,17.30
2022-11-24T06:07:20.006Z,15.07
2022-11-24T06:09:46.817Z,16.27
2022-11-24T06:12:13.738Z,15.82
2022-11-24T06:14:40.828Z,23.92
2022-11-24T06:17:07.761Z,30.30
2022-11-24T06:19:37.379Z,36.35
2022-11-24T06:22:06.459Z,38.00
2022-11-24T06:24:33.113Z,43.47
2022-11-24T06:26:59.766Z,36.92
2022-11-24T06:29:26.168Z,32.08
2022-11-24T06:31:52.633Z,33.70
2022-11-24T06:34:19.176Z,29.67
2022-11-24T06:36:45.540Z,27.92
2022-11-24T06:39:11.935Z,32.85
2022-11-24T06:41:38.313Z,36.15
2022-11-24T06:44:05.005Z,35.13
2022-11-24T06:46:31.595Z,32.40
2022-11-24T06:48:59.677Z,27.67
2022-11-24T06:51:27.030Z,28.80
2022-11-24T06:53:53.749Z,28.42
2022-11-24T06:56:21.015Z,26.60
2022-11-24T06:58:50.162Z,23.00
2022-11-24T07:01:22.170Z,20.83
2022-11-24T07:03:48.998Z,20.63
2022-11-24T07:06:16.592Z,22.48
2022-11-24T07:11:15.398Z,21.80
2022-11-24T07:13:42.864Z,19.83
2022-11-24T07:16:17.941Z,20.80
2022-11-24T07:18:46.219Z,19.50
2022-11-24T07:21:13.382Z,20.27
2022-11-24T07:23:40.040Z,22.27
2022-11-24T07:26:07.629Z,67.20
2022-11-24T07:28:35.051Z,31.27
2022-11-24T07:31:06.559Z,23.08
2022-11-24T07:33:32.989Z,19.95
2022-11-24T07:36:00.569Z,19.85
2022-11-24T07:40:53.337Z,25.20
2022-11-24T07:43:20.426Z,25.80
2022-11-24T07:45:52.509Z,23.63
2022-11-24T07:48:18.968Z,22.95
2022-11-24T07:50:45.441Z,21.08
2022-11-24T07:53:12.145Z,20.80
2022-11-24T07:55:38.508Z,21.77
2022-11-24T07:58:04.952Z,22.45
2022-11-24T08:00:31.307Z,21.98
2022-11-24T08:02:57.780Z,20.80
2022-11-24T08:05:24.216Z,19.67
2022-11-24T08:07:50.716Z,19.00
2022-11-24T08:10:17.973Z,18.58
2022-11-24T08:12:44.485Z,21.35
2022-11-24T08:15:11.619Z,20.33
2022-11-24T08:17:38.232Z,20.55
2022-11-24T08:20:05.320Z,18.52
2022-11-24T08:22:31.778Z,19.58
2022-11-24T08:24:58.305Z,20.60
2022-11-24T08:27:24.811Z,20.55
2022-11-24T08:29:51.246Z,22.75
2022-11-24T08:32:22.335Z,29.92
2022-11-24T08:34:48.996Z,42.20
2022-11-24T08:37:15.398Z,42.85
2022-11-24T08:39:41.754Z,60.35
2022-11-24T08:42:08.148Z,35.78
2022-11-24T08:44:34.672Z,28.45
2022-11-24T08:47:01.151Z,28.67
2022-11-24T08:49:27.700Z,27.00
2022-11-24T08:51:56.696Z,26.88
2022-11-24T08:54:23.254Z,23.92
2022-11-24T08:56:50.021Z,21.95
2022-11-24T08:59:16.587Z,23.00
2022-11-24T09:01:43.117Z,19.90
2022-11-24T09:04:09.774Z,13.05
2022-11-24T09:06:36.302Z,12.30
2022-11-24T09:09:03.291Z,12.60
2022-11-24T09:11:30.725Z,17.58
2022-11-24T09:13:57.119Z,16.42
2022-11-24T09:16:26.316Z,14.27
2022-11-24T09:19:01.249Z,15.48
2022-11-24T09:21:28.492Z,12.93
2022-11-24T09:23:55.708Z,11.18
2022-11-24T09:26:27.604Z,10.65
2022-11-24T09:28:55.507Z,10.85
2022-11-24T09:31:25.195Z,11.07
2022-11-24T09:33:52.428Z,10.40
2022-11-24T09:36:19.318Z,10.43
2022-11-24T09:38:45.899Z,10.40
2022-11-24T09:41:18.326Z,11.15
2022-11-24T09:44:22.379Z,11.68
2022-11-24T09:47:03.844Z,11.50
2022-11-24T09:49:30.172Z,11.10
2022-11-24T09:51:57.456Z,10.05
2022-11-24T09:54:28.453Z,9.77
2022-11-24T09:56:59.759Z,10.10
2022-11-24T09:59:27.445Z,9.63
2022-11-24T10:01:54.903Z,9.65
2022-11-24T10:04:22.794Z,9.38
2022-11-24T10:07:09.085Z,9.93
2022-11-24T10:10:07.080Z,9.57
2022-11-24T10:13:16.488Z,9.60
2022-11-24T10:16:14.974Z,9.07
2022-11-24T10:19:02.492Z,9.43
2022-11-24T10:21:40.668Z,9.98
2022-11-24T10:24:44.668Z,10.40
2022-11-24T10:27:18.276Z,10.07
2022-11-24T10:29:48.107Z,9.07
2022-11-24T10:32:18.837Z,8.93
2022-11-24T10:34:48.755Z,9.45
2022-11-24T10:37:28.551Z,8.40
2022-11-24T10:40:40.425Z,7.47
2022-11-24T10:43:00.808Z,7.50
2022-11-24T10:45:28.997Z,8.07
2022-11-24T10:47:57.784Z,7.55
2022-11-24T10:50:38.033Z,7.60
2022-11-24T10:53:13.673Z,8.27
2022-11-24T10:55:55.747Z,7.85
2022-11-24T10:58:26.756Z,7.30
2022-11-24T11:00:54.686Z,7.80
2022-11-24T11:03:24.079Z,8.10
2022-11-24T11:06:15.072Z,7.97
2022-11-24T11:08:41.478Z,7.85
2022-11-24T11:11:27.390Z,7.28
2022-11-24T11:14:03.993Z,7.40
2022-11-24T11:16:54.030Z,7.03
2022-11-24T11:19:49.058Z,7.00
2022-11-24T11:22:25.947Z,7.03
2022-11-24T11:25:29.583Z,6.82
2022-11-24T11:28:18.649Z,6.82
2022-11-24T11:31:20.432Z,6.75
2022-11-24T11:34:23.503Z,7.03
2022-11-24T11:36:56.166Z,7.35
2022-11-24T11:39:43.842Z,7.50
2022-11-24T11:43:00.726Z,7.00
2022-11-24T11:45:30.841Z,6.32
2022-11-24T11:48:03.439Z,7.10
2022-11-24T11:51:14.792Z,7.05
2022-11-24T11:53:45.753Z,6.95
2022-11-24T11:56:24.424Z,6.57
2022-11-24T11:59:06.459Z,5.82
2022-11-24T12:01:46.911Z,5.07
2022-11-24T12:04:22.436Z,5.80
2022-11-24T12:07:06.047Z,4.63
2022-11-24T12:09:46.978Z,4.10
2022-11-24T12:12:38.857Z,4.68
2022-11-24T12:15:37.677Z,4.32
2022-11-24T12:18:26.786Z,4.68
2022-11-24T12:21:17.062Z,4.93
2022-11-24T12:23:53.369Z,5.32
2022-11-24T12:26:43.892Z,6.80
2022-11-24T12:29:37.024Z,7.30
2022-11-24T12:32:06.320Z,7.95
2022-11-24T12:34:53.045Z,6.88
2022-11-24T12:38:02.800Z,7.53
2022-11-24T12:40:35.105Z,7.88
2022-11-24T12:43:11.842Z,7.43
2022-11-24T12:46:19.733Z,6.47
2022-11-24T12:49:04.471Z,3.80
2022-11-24T12:51:38.304Z,3.38
2022-11-24T12:54:10.401Z,3.78
2022-11-24T12:56:43.256Z,3.20
2022-11-24T12:59:33.197Z,4.97
2022-11-24T13:02:21.426Z,4.05
2022-11-24T13:05:06.872Z,6.25
2022-11-24T13:07:42.760Z,4.65
2022-11-24T13:13:15.219Z,4.07
2022-11-24T13:16:20.578Z,3.50
2022-11-24T13:19:00.201Z,3.25
2022-11-24T13:21:42.814Z,3.72
2022-11-24T13:24:19.700Z,3.30
2022-11-24T13:26:55.295Z,3.58
2022-11-24T13:29:28.302Z,4.25
2022-11-24T13:31:55.977Z,3.78
2022-11-24T13:34:41.084Z,4.70
2022-11-24T13:37:39.544Z,5.10
2022-11-24T13:40:12.084Z,5.63
2022-11-24T13:43:02.734Z,4.30
2022-11-24T13:45:49.664Z,4.70
2022-11-24T13:48:18.930Z,4.78
2022-11-24T13:50:51.731Z,4.93
2022-11-24T13:53:38.558Z,3.63
2022-11-24T13:56:14.273Z,3.70
2022-11-24T13:58:48.623Z,3.70
2022-11-24T14:01:33.159Z,3.15
2022-11-24T14:07:09.554Z,10.60
2022-11-24T14:09:47.019Z,8.27
2022-11-24T14:12:13.424Z,4.72
2022-11-24T14:14:40.494Z,3.45
2022-11-24T14:17:12.917Z,3.67
2022-11-24T14:19:39.579Z,4.70
2022-11-24T14:22:06.027Z,3.80
2022-11-24T14:24:38.245Z,3.92
2022-11-24T14:27:15.325Z,3.80
2022-11-24T14:30:04.726Z,3.42
2022-11-24T14:32:31.282Z,4.18
2022-11-24T14:34:57.823Z,3.97
2022-11-24T14:37:24.569Z,4.40
2022-11-24T14:39:51.088Z,4.75
2022-11-24T14:42:23.705Z,4.60
2022-11-24T14:45:17.732Z,5.13
2022-11-24T14:47:45.188Z,5.50
2022-11-24T14:50:16.163Z,5.15
2022-11-24T14:52:52.419Z,5.10
2022-11-24T14:55:29.596Z,4.32
2022-11-24T14:57:56.680Z,4.38
2022-11-24T15:00:31.531Z,4.35
2022-11-24T15:03:01.042Z,5.50
2022-11-24T15:05:53.527Z,5.55
2022-11-24T15:08:20.235Z,5.75
2022-11-24T15:10:46.955Z,4.63
2022-11-24T15:13:20.475Z,4.90
2022-11-24T15:15:51.712Z,4.65
2022-11-24T15:18:27.842Z,5.10
2022-11-24T15:20:54.812Z,5.03
2022-11-24T15:23:26.114Z,5.70
2022-11-24T15:25:54.442Z,5.70
2022-11-24T15:28:25.989Z,7.65
2022-11-24T15:31:03.981Z,7.82
2022-11-24T15:33:31.106Z,8.65
2022-11-24T15:35:58.042Z,7.78
2022-11-24T15:38:24.476Z,8.27
2022-11-24T15:40:52.781Z,7.93
2022-11-24T15:43:36.735Z,8.07
2022-11-24T15:46:04.447Z,8.20
2022-11-24T15:48:31.093Z,7.43
2022-11-24T15:50:59.254Z,9.07
2022-11-24T15:53:30.140Z,9.65
2022-11-24T15:55:57.393Z,8.38
2022-11-24T15:58:24.222Z,10.23
2022-11-24T16:00:53.807Z,9.50
2022-11-24T16:06:12.719Z,8.45
2022-11-24T16:08:39.147Z,8.85
2022-11-24T16:11:05.723Z,9.30
2022-11-24T16:13:32.234Z,8.68
2022-11-24T16:15:58.753Z,8.60
2022-11-24T16:18:25.281Z,7.82
2022-11-24T16:20:51.663Z,7.90
2022-11-24T16:23:18.388Z,8.18
2022-11-24T16:25:44.999Z,8.10
2022-11-24T16:28:11.467Z,10.02
2022-11-24T16:30:38.202Z,15.27
2022-11-24T16:33:08.235Z,20.48
2022-11-24T16:35:34.635Z,22.90
2022-11-24T16:38:01.104Z,20.52
2022-11-24T16:40:28.553Z,17.63
2022-11-24T16:45:22.716Z,17.90
2022-11-24T16:47:49.224Z,20.45
2022-11-24T16:50:15.776Z,19.50
2022-11-24T16:52:42.288Z,19.17
2022-11-24T16:55:09.741Z,15.75
2022-11-24T16:57:36.833Z,16.83
2022-11-24T17:00:05.095Z,15.10
2022-11-24T17:02:32.810Z,16.40
2022-11-24T17:04:59.230Z,17.17
2022-11-24T17:07:26.335Z,15.27
2022-11-24T17:09:52.758Z,14.48
2022-11-24T17:12:19.285Z,14.02
2022-11-24T17:15:03.113Z,13.40
2022-11-24T17:17:32.262Z,14.43
2022-11-24T17:19:58.674Z,13.60
2022-11-24T17:22:25.142Z,14.38
2022-11-24T17:24:51.523Z,15.90
2022-11-24T17:27:17.994Z,17.63
2022-11-24T17:29:44.394Z,16.13
2022-11-24T17:32:10.830Z,15.32
2022-11-24T17:34:37.452Z,15.38
2022-11-24T17:37:04.005Z,13.87
2022-11-24T17:39:30.410Z,15.50
2022-11-24T17:41:56.773Z,13.77
2022-11-24T17:44:23.245Z,13.00
2022-11-24T17:49:18.274Z,13.10
2022-11-24T17:51:50.243Z,12.48
2022-11-24T17:54:45.545Z,12.93
2022-11-24T17:57:04.511Z,11.73
2022-11-24T17:59:30.914Z,12.90
2022-11-24T18:01:57.391Z,11.63
2022-11-24T18:04:23.807Z,12.98
2022-11-24T18:06:50.195Z,15.57
2022-11-24T18:09:16.650Z,13.63
2022-11-24T18:11:43.197Z,13.50
2022-11-24T18:14:09.849Z,14.63
2022-11-24T18:16:36.284Z,14.23
2022-11-24T18:19:08.785Z,13.27
2022-11-24T18:21:40.693Z,13.38
2022-11-24T18:24:09.004Z,13.68
2022-11-24T18:26:35.640Z,13.52
2022-11-24T18:29:02.267Z,14.83
2022-11-24T18:31:29.575Z,21.27
2022-11-24T18:33:56.155Z,21.58
2022-11-24T18:36:29.865Z,17.80
2022-11-24T18:38:57.863Z,18.25
2022-11-24T18:41:24.219Z,18.23
2022-11-24T18:43:50.679Z,17.98
2022-11-24T18:46:17.661Z,16.63
2022-11-24T18:48:45.375Z,18.17
2022-11-24T18:51:15.329Z,23.27
2022-11-24T18:53:43.143Z,17.40
2022-11-24T18:56:15.724Z,14.40
2022-11-24T18:58:43.204Z,12.75
2022-11-24T19:01:21.449Z,12.77
2022-11-24T19:03:51.069Z,13.45
2022-11-24T19:06:39.358Z,12.80
2022-11-24T19:09:08.946Z,12.55
2022-11-24T19:11:38.385Z,12.50
2022-11-24T19:14:06.829Z,12.30
2022-11-24T19:16:34.175Z,12.75
2022-11-24T19:19:02.475Z,11.88
2022-11-24T19:21:31.711Z,12.65
2022-11-24T19:24:04.208Z,13.80
2022-11-24T19:26:31.835Z,13.43
2022-11-24T19:28:58.353Z,12.83
2022-11-24T19:31:24.782Z,12.05
2022-11-24T19:33:52.829Z,12.30
2022-11-24T19:36:21.054Z,12.80
2022-11-24T19:38:52.487Z,13.88
2022-11-24T19:41:20.708Z,13.52
2022-11-24T19:43:47.986Z,13.60
2022-11-24T19:46:17.029Z,15.13
2022-11-24T19:48:45.613Z,15.00
2022-11-24T19:51:14.852Z,13.15
2022-11-24T19:53:42.753Z,13.52
2022-11-24T19:56:17.342Z,13.20
2022-11-24T19:58:44.189Z,13.75
2022-11-24T20:01:13.425Z,13.98
2022-11-24T20:03:41.284Z,15.35
2022-11-24T20:06:09.989Z,14.85
2022-11-24T20:08:37.701Z,15.23
2022-11-24T20:11:07.982Z,20.05
2022-11-24T20:13:35.794Z,16.65
2022-11-24T20:16:09.079Z,16.98
2022-11-24T20:18:41.718Z,18.35
2022-11-24T20:21:11.081Z,16.30
2022-11-24T20:23:38.026Z,17.23
2022-11-24T20:26:07.355Z,16.67
2022-11-24T20:28:34.036Z,16.20
2022-11-24T20:31:05.257Z,15.43
2022-11-24T20:33:32.138Z,15.68
2022-11-24T20:36:04.045Z,16.00
2022-11-24T20:38:30.941Z,15.45
2022-11-24T20:41:09.000Z,14.13
2022-11-24T20:43:36.608Z,12.40
2022-11-24T20:46:08.383Z,12.27
2022-11-24T20:48:35.484Z,12.18
2022-11-24T20:51:08.135Z,11.68
2022-11-24T20:53:35.190Z,13.55
2022-11-24T20:56:06.142Z,11.07
2022-11-24T20:58:34.576Z,12.70
2022-11-24T21:01:12.168Z,12.70
2022-11-24T21:03:43.281Z,12.73
2022-11-24T21:06:11.757Z,12.30
2022-11-24T21:08:39.359Z,14.60
2022-11-24T21:13:34.508Z,13.93
2022-11-24T21:16:10.662Z,15.18
2022-11-24T21:18:37.104Z,15.25
2022-11-24T21:21:03.426Z,15.23
2022-11-24T21:23:29.808Z,14.52
2022-11-24T21:26:05.244Z,14.05
2022-11-24T21:28:32.329Z,13.52
2022-11-24T21:31:10.220Z,13.23
2022-11-24T21:33:45.515Z,12.70
2022-11-24T21:36:14.621Z,13.13
2022-11-24T21:38:42.539Z,13.27
2022-11-24T21:41:10.849Z,15.68
2022-11-24T21:43:37.540Z,14.07
2022-11-24T21:46:06.836Z,14.20
2022-11-24T21:48:35.685Z,14.77
2022-11-24T21:51:04.339Z,15.45
2022-11-24T21:53:33.440Z,13.57
2022-11-24T21:56:01.633Z,13.15
2022-11-24T21:58:29.604Z,14.77
2022-11-24T22:01:02.492Z,14.18
2022-11-24T22:03:29.651Z,12.30
2022-11-24T22:05:57.714Z,13.27
2022-11-24T22:08:25.885Z,13.55
2022-11-24T22:10:52.855Z,13.38
2022-11-24T22:13:20.049Z,15.05
2022-11-24T22:15:46.406Z,12.77
2022-11-24T22:18:12.775Z,13.30
2022-11-24T22:20:39.280Z,13.85
2022-11-24T22:23:05.622Z,13.52
2022-11-24T22:25:33.366Z,14.55
2022-11-24T22:27:59.983Z,14.57
2022-11-24T22:30:26.409Z,14.30
2022-11-24T22:32:53.133Z,15.20
2022-11-24T22:35:19.489Z,14.60
2022-11-24T22:37:46.032Z,13.43
2022-11-24T22:40:12.577Z,14.38
2022-11-24T22:42:38.940Z,13.93
2022-11-24T22:45:05.980Z,14.65
2022-11-24T22:47:32.405Z,16.17
2022-11-24T22:49:58.829Z,16.30
2022-11-24T22:52:25.225Z,16.88
2022-11-24T22:54:51.591Z,16.92
2022-11-24T22:57:18.002Z,15.23
2022-11-24T22:59:44.357Z,14.77
2022-11-24T23:02:10.729Z,15.73
2022-11-24T23:04:37.450Z,15.77
2022-11-24T23:07:03.964Z,14.68
2022-11-24T23:09:30.372Z,14.25
2022-11-24T23:11:56.727Z,12.98
2022-11-24T23:14:23.189Z,14.07
2022-11-24T23:16:49.634Z,13.60
2022-11-24T23:19:16.092Z,13.40
2022-11-24T23:21:42.438Z,13.38
2022-11-24T23:24:10.447Z,12.18
2022-11-24T23:26:39.555Z,11.73
2022-11-24T23:29:06.937Z,11.02
2022-11-24T23:31:33.778Z,12.88
2022-11-24T23:34:03.020Z,11.85
2022-11-24T23:36:30.244Z,11.02
2022-11-24T23:39:01.559Z,12.23
2022-11-24T23:41:30.376Z,12.00
2022-11-24T23:43:56.745Z,14.02
2022-11-24T23:46:25.114Z,12.93
2022-11-24T23:48:53.539Z,12.60
2022-11-24T23:51:31.041Z,14.35
2022-11-24T23:53:58.588Z,12.65
2022-11-24T23:58:52.548Z,13.07
